sensor_id;sensor_type;location;lat;lon;timestamp;temperature;humidity
23755;DHT22;12057;52.042;6.830;2023-03-01T00:02:38;-0.50;99.90
23755;DHT22;12057;52.042;6.830;2023-03-01T00:07:39;-0.60;99.90
23755;DHT22;12057;52.042;6.830;2023-03-01T00:12:39;-0.60;99.90
23755;DHT22;12057;52.042;6.830;2023-03-01T00:17:40;-0.70;99.90
23755;DHT22;12057;52.042;6.830;2023-03-01T00:22:41;-0.80;99.90
23755;DHT22;12057;52.042;6.830;2023-03-01T00:27:41;-0.80;99.90
23755;DHT22;12057;52.042;6.830;2023-03-01T00:32:42;-0.90;99.90
23755;DHT22;12057;52.042;6.830;2023-03-01T00:37:43;-0.90;99.90
23755;DHT22;12057;52.042;6.830;2023-03-01T00:42:44;-0.90;99.90
23755;DHT22;12057;52.042;6.830;2023-03-01T00:47:44;-1.00;99.90
23755;DHT22;12057;52.042;6.830;2023-03-01T00:52:45;-1.00;99.90
23755;DHT22;12057;52.042;6.830;2023-03-01T00:57:46;-1.00;99.90
23755;DHT22;12057;52.042;6.830;2023-03-01T01:02:47;-1.10;99.90
23755;DHT22;12057;52.042;6.830;2023-03-01T01:07:48;-1.20;99.90
23755;DHT22;12057;52.042;6.830;2023-03-01T01:12:49;-1.20;99.90
23755;DHT22;12057;52.042;6.830;2023-03-01T01:17:49;-1.20;99.90
23755;DHT22;12057;52.042;6.830;2023-03-01T01:22:50;-1.30;99.90
23755;DHT22;12057;52.042;6.830;2023-03-01T01:27:51;-1.30;99.90
23755;DHT22;12057;52.042;6.830;2023-03-01T01:32:52;-1.30;99.90
23755;DHT22;12057;52.042;6.830;2023-03-01T01:37:53;-1.40;99.90
23755;DHT22;12057;52.042;6.830;2023-03-01T01:42:53;-1.40;99.90
23755;DHT22;12057;52.042;6.830;2023-03-01T01:47:57;-1.40;99.90
23755;DHT22;12057;52.042;6.830;2023-03-01T01:52:59;-1.40;99.90
23755;DHT22;12057;52.042;6.830;2023-03-01T01:58:01;-1.50;99.90
23755;DHT22;12057;52.042;6.830;2023-03-01T02:03:16;-1.50;99.90
23755;DHT22;12057;52.042;6.830;2023-03-01T02:08:19;-1.60;99.90
23755;DHT22;12057;52.042;6.830;2023-03-01T02:13:20;-1.60;99.90
23755;DHT22;12057;52.042;6.830;2023-03-01T02:18:23;-1.70;99.90
23755;DHT22;12057;52.042;6.830;2023-03-01T02:23:24;-1.70;99.90
23755;DHT22;12057;52.042;6.830;2023-03-01T02:28:32;-1.70;99.90
23755;DHT22;12057;52.042;6.830;2023-03-01T02:33:37;-1.70;99.90
23755;DHT22;12057;52.042;6.830;2023-03-01T02:38:38;-1.80;99.90
23755;DHT22;12057;52.042;6.830;2023-03-01T02:43:39;-1.80;99.90
23755;DHT22;12057;52.042;6.830;2023-03-01T02:48:53;-1.90;99.90
23755;DHT22;12057;52.042;6.830;2023-03-01T02:59:31;-1.90;99.90
23755;DHT22;12057;52.042;6.830;2023-03-01T03:04:39;-2.00;99.90
23755;DHT22;12057;52.042;6.830;2023-03-01T03:09:41;-2.00;99.90
23755;DHT22;12057;52.042;6.830;2023-03-01T03:14:42;-2.00;99.90
23755;DHT22;12057;52.042;6.830;2023-03-01T03:19:43;-2.10;99.90
23755;DHT22;12057;52.042;6.830;2023-03-01T03:24:45;-2.10;99.90
23755;DHT22;12057;52.042;6.830;2023-03-01T03:29:46;-2.10;99.90
23755;DHT22;12057;52.042;6.830;2023-03-01T03:34:47;-2.10;99.90
23755;DHT22;12057;52.042;6.830;2023-03-01T03:39:48;-2.20;99.90
23755;DHT22;12057;52.042;6.830;2023-03-01T03:44:49;-2.20;99.90
23755;DHT22;12057;52.042;6.830;2023-03-01T03:49:50;-2.30;99.90
23755;DHT22;12057;52.042;6.830;2023-03-01T03:54:51;-2.40;99.90
23755;DHT22;12057;52.042;6.830;2023-03-01T03:59:51;-2.40;99.90
23755;DHT22;12057;52.042;6.830;2023-03-01T04:04:52;-2.40;99.90
23755;DHT22;12057;52.042;6.830;2023-03-01T04:09:53;-2.40;99.90
23755;DHT22;12057;52.042;6.830;2023-03-01T04:14:53;-2.40;99.90
23755;DHT22;12057;52.042;6.830;2023-03-01T04:20:00;-2.40;99.90
23755;DHT22;12057;52.042;6.830;2023-03-01T04:25:06;-2.50;99.90
23755;DHT22;12057;52.042;6.830;2023-03-01T04:30:08;-2.60;99.90
23755;DHT22;12057;52.042;6.830;2023-03-01T04:35:10;-2.60;99.90
23755;DHT22;12057;52.042;6.830;2023-03-01T04:40:11;-2.50;99.90
23755;DHT22;12057;52.042;6.830;2023-03-01T04:45:16;-2.50;99.90
23755;DHT22;12057;52.042;6.830;2023-03-01T04:50:18;-2.60;99.90
23755;DHT22;12057;52.042;6.830;2023-03-01T04:55:25;-2.60;99.90
23755;DHT22;12057;52.042;6.830;2023-03-01T05:00:26;-2.70;99.90
23755;DHT22;12057;52.042;6.830;2023-03-01T05:05:31;-2.70;99.90
23755;DHT22;12057;52.042;6.830;2023-03-01T05:10:35;-2.70;99.90
23755;DHT22;12057;52.042;6.830;2023-03-01T05:15:36;-2.80;99.90
23755;DHT22;12057;52.042;6.830;2023-03-01T05:20:37;-2.80;99.90
23755;DHT22;12057;52.042;6.830;2023-03-01T05:25:38;-2.80;99.90
23755;DHT22;12057;52.042;6.830;2023-03-01T05:30:40;-2.90;99.90
23755;DHT22;12057;52.042;6.830;2023-03-01T05:35:45;-2.90;99.90
23755;DHT22;12057;52.042;6.830;2023-03-01T05:40:48;-3.00;99.90
23755;DHT22;12057;52.042;6.830;2023-03-01T05:45:49;-3.00;99.90
23755;DHT22;12057;52.042;6.830;2023-03-01T05:50:50;-3.00;99.90
23755;DHT22;12057;52.042;6.830;2023-03-01T05:55:50;-3.00;99.90
23755;DHT22;12057;52.042;6.830;2023-03-01T06:00:51;-3.00;99.90
23755;DHT22;12057;52.042;6.830;2023-03-01T06:05:57;-3.00;99.90
23755;DHT22;12057;52.042;6.830;2023-03-01T06:10:58;-3.00;99.90
23755;DHT22;12057;52.042;6.830;2023-03-01T06:15:58;-3.00;99.90
23755;DHT22;12057;52.042;6.830;2023-03-01T06:20:59;-2.90;99.90
23755;DHT22;12057;52.042;6.830;2023-03-01T06:26:04;-2.90;99.90
23755;DHT22;12057;52.042;6.830;2023-03-01T06:31:05;-2.80;99.90
23755;DHT22;12057;52.042;6.830;2023-03-01T06:36:09;-2.80;99.90
23755;DHT22;12057;52.042;6.830;2023-03-01T06:41:10;-2.80;99.90
23755;DHT22;12057;52.042;6.830;2023-03-01T06:46:11;-2.70;99.90
23755;DHT22;12057;52.042;6.830;2023-03-01T06:51:11;-2.60;99.90
23755;DHT22;12057;52.042;6.830;2023-03-01T06:56:12;-2.50;99.90
23755;DHT22;12057;52.042;6.830;2023-03-01T07:01:13;-2.40;99.90
23755;DHT22;12057;52.042;6.830;2023-03-01T07:06:14;-2.40;99.90
23755;DHT22;12057;52.042;6.830;2023-03-01T07:11:15;-2.30;99.90
23755;DHT22;12057;52.042;6.830;2023-03-01T07:16:16;-2.10;99.90
23755;DHT22;12057;52.042;6.830;2023-03-01T07:21:17;-1.80;99.90
23755;DHT22;12057;52.042;6.830;2023-03-01T07:26:17;-1.50;99.90
23755;DHT22;12057;52.042;6.830;2023-03-01T07:31:18;-1.20;99.90
23755;DHT22;12057;52.042;6.830;2023-03-01T07:36:19;-0.80;99.90
23755;DHT22;12057;52.042;6.830;2023-03-01T07:41:19;-0.50;99.90
23755;DHT22;12057;52.042;6.830;2023-03-01T07:46:20;-0.30;99.90
23755;DHT22;12057;52.042;6.830;2023-03-01T07:51:21;-0.10;99.90
23755;DHT22;12057;52.042;6.830;2023-03-01T07:56:22;0.10;99.90
23755;DHT22;12057;52.042;6.830;2023-03-01T08:01:22;0.30;99.90
23755;DHT22;12057;52.042;6.830;2023-03-01T08:06:24;0.60;99.90
23755;DHT22;12057;52.042;6.830;2023-03-01T08:11:24;0.90;99.90
23755;DHT22;12057;52.042;6.830;2023-03-01T08:16:25;1.10;99.90
23755;DHT22;12057;52.042;6.830;2023-03-01T08:21:26;1.40;99.90
23755;DHT22;12057;52.042;6.830;2023-03-01T08:26:27;1.60;99.90
23755;DHT22;12057;52.042;6.830;2023-03-01T08:31:31;1.90;99.90
23755;DHT22;12057;52.042;6.830;2023-03-01T08:36:37;2.10;99.90
23755;DHT22;12057;52.042;6.830;2023-03-01T08:41:39;2.40;99.90
23755;DHT22;12057;52.042;6.830;2023-03-01T08:46:40;2.70;99.90
23755;DHT22;12057;52.042;6.830;2023-03-01T08:51:42;2.90;99.90
23755;DHT22;12057;52.042;6.830;2023-03-01T08:56:43;3.20;99.90
23755;DHT22;12057;52.042;6.830;2023-03-01T09:01:44;3.40;99.90
23755;DHT22;12057;52.042;6.830;2023-03-01T09:06:45;3.70;99.90
23755;DHT22;12057;52.042;6.830;2023-03-01T09:11:46;3.80;99.90
23755;DHT22;12057;52.042;6.830;2023-03-01T09:16:50;3.90;99.90
23755;DHT22;12057;52.042;6.830;2023-03-01T09:21:51;4.20;99.90
23755;DHT22;12057;52.042;6.830;2023-03-01T09:26:57;4.40;99.90
23755;DHT22;12057;52.042;6.830;2023-03-01T09:32:00;4.60;99.90
23755;DHT22;12057;52.042;6.830;2023-03-01T09:37:01;4.80;99.90
23755;DHT22;12057;52.042;6.830;2023-03-01T09:42:03;4.90;99.90
23755;DHT22;12057;52.042;6.830;2023-03-01T09:47:05;5.10;99.90
23755;DHT22;12057;52.042;6.830;2023-03-01T09:52:34;5.30;99.90
23755;DHT22;12057;52.042;6.830;2023-03-01T10:03:24;5.80;99.90
23755;DHT22;12057;52.042;6.830;2023-03-01T10:15:25;6.00;99.90
23755;DHT22;12057;52.042;6.830;2023-03-01T10:20:21;6.10;99.90
23755;DHT22;12057;52.042;6.830;2023-03-01T10:30:59;6.40;99.90
23755;DHT22;12057;52.042;6.830;2023-03-01T10:36:01;6.50;99.90
23755;DHT22;12057;52.042;6.830;2023-03-01T10:41:06;6.60;99.90
23755;DHT22;12057;52.042;6.830;2023-03-01T10:46:30;6.50;99.90
23755;DHT22;12057;52.042;6.830;2023-03-01T10:51:32;6.60;99.90
23755;DHT22;12057;52.042;6.830;2023-03-01T10:56:47;6.80;99.90
23755;DHT22;12057;52.042;6.830;2023-03-01T11:07:02;6.90;99.90
23755;DHT22;12057;52.042;6.830;2023-03-01T11:12:11;6.90;99.60
23755;DHT22;12057;52.042;6.830;2023-03-01T11:17:30;7.00;99.90
23755;DHT22;12057;52.042;6.830;2023-03-01T11:22:34;7.30;99.90
23755;DHT22;12057;52.042;6.830;2023-03-01T11:27:40;7.60;99.80
23755;DHT22;12057;52.042;6.830;2023-03-01T11:33:15;7.40;98.90
23755;DHT22;12057;52.042;6.830;2023-03-01T11:38:25;7.20;98.20
23755;DHT22;12057;52.042;6.830;2023-03-01T11:43:46;7.20;97.10
23755;DHT22;12057;52.042;6.830;2023-03-01T12:04:06;7.50;95.50
23755;DHT22;12057;52.042;6.830;2023-03-01T12:09:35;7.90;97.80
23755;DHT22;12057;52.042;6.830;2023-03-01T12:14:45;8.30;94.90
23755;DHT22;12057;52.042;6.830;2023-03-01T12:30:35;8.20;94.50
23755;DHT22;12057;52.042;6.830;2023-03-01T12:51:30;8.50;97.60
23755;DHT22;12057;52.042;6.830;2023-03-01T12:56:32;8.50;97.20
23755;DHT22;12057;52.042;6.830;2023-03-01T13:11:42;9.20;97.60
23755;DHT22;12057;52.042;6.830;2023-03-01T13:16:44;9.20;97.60
23755;DHT22;12057;52.042;6.830;2023-03-01T13:21:47;8.90;95.60
23755;DHT22;12057;52.042;6.830;2023-03-01T13:37:34;9.30;95.70
23755;DHT22;12057;52.042;6.830;2023-03-01T13:42:39;9.70;95.40
23755;DHT22;12057;52.042;6.830;2023-03-01T13:47:42;9.30;95.10
23755;DHT22;12057;52.042;6.830;2023-03-01T13:53:05;9.90;95.60
23755;DHT22;12057;52.042;6.830;2023-03-01T14:03:23;9.50;94.40
23755;DHT22;12057;52.042;6.830;2023-03-01T14:08:26;9.30;92.40
23755;DHT22;12057;52.042;6.830;2023-03-01T14:19:16;10.10;91.90
23755;DHT22;12057;52.042;6.830;2023-03-01T14:24:21;9.50;91.20
23755;DHT22;12057;52.042;6.830;2023-03-01T14:29:41;9.30;91.80
23755;DHT22;12057;52.042;6.830;2023-03-01T14:34:47;9.00;91.90
23755;DHT22;12057;52.042;6.830;2023-03-01T14:39:48;8.90;92.20
23755;DHT22;12057;52.042;6.830;2023-03-01T14:44:51;8.40;91.50
23755;DHT22;12057;52.042;6.830;2023-03-01T14:50:09;8.40;92.50
23755;DHT22;12057;52.042;6.830;2023-03-01T14:55:36;8.50;92.60
23755;DHT22;12057;52.042;6.830;2023-03-01T15:00:39;8.30;93.30
23755;DHT22;12057;52.042;6.830;2023-03-01T15:05:45;8.10;93.80
23755;DHT22;12057;52.042;6.830;2023-03-01T15:10:59;8.10;94.20
